Aviation Digital Data Service (ADDS)

Output produced by METARs form (1821 UTC 22 November 2017)
found at http://www.aviationweather.gov/adds/metars/
 
TAF SMJP 221000Z 2212/2312 09008KT 9999 SCT015 TX33/2218Z TN23/2310Z 
     PROB30 
     TEMPO 2218/2220 5000 SHRA FEW015TCU 
     FM222300 06005KT CAVOK 
     BECMG 2308/2310 00000KT 0800 FG BKN002